Santa Carmem, Brazil
Current Conditions -  °F | °C
As of 1:00 PM on Thursday 30 Oct 2014 (Local Time) from SBAT Reporting Station
Broken Clouds Broken Clouds  
Wind Chill: 84°   Ceiling: 10000
Heat Index: 91°   Visibility: 6mi
Dew Point: 73°   Wind: 6mph
Humidity: 70%   Direction: 340°NNW
Pressure: 29.88"   Gusts: NA
Location:  11.91°S, 55.23°W
Report Text: SBAT 301600Z 34005KT 9999 FEW030 BKN100 29/23 Q1012
Loading
Personal Weather Stations






























Interactive Weather Map
Tropical Storm Tracking
New forecast layout! Learn more

10-Day Weather Forecast

Advertisements
Track Severe Weather on mobile